createdAt,value
2023-02-18T00:01:23.907Z,9.34
2023-02-18T00:05:25.864Z,9.23
2023-02-18T00:09:29.240Z,9.14
2023-02-18T00:13:33.336Z,9.08
2023-02-18T00:17:35.998Z,8.99
2023-02-18T00:21:39.350Z,8.92
2023-02-18T00:25:41.141Z,8.96
2023-02-18T00:29:42.982Z,8.95
2023-02-18T00:33:44.860Z,8.93
2023-02-18T00:37:46.861Z,8.92
2023-02-18T00:41:48.722Z,8.90
2023-02-18T00:45:50.677Z,9.00
2023-02-18T00:49:52.617Z,8.96
2023-02-18T00:53:55.099Z,8.87
2023-02-18T00:57:57.275Z,8.81
2023-02-18T01:01:59.242Z,8.69
2023-02-18T01:06:01.165Z,8.60
2023-02-18T01:10:03.862Z,8.52
2023-02-18T01:14:06.674Z,8.44
2023-02-18T01:18:09.863Z,8.38
2023-02-18T01:22:11.806Z,8.21
2023-02-18T01:26:13.670Z,8.04
2023-02-18T01:30:17.481Z,7.87
2023-02-18T01:34:20.518Z,7.74
2023-02-18T01:38:23.372Z,7.60
2023-02-18T01:42:27.593Z,7.62
2023-02-18T01:46:29.418Z,7.85
2023-02-18T01:50:34.631Z,7.95
2023-02-18T01:54:47.421Z,8.04
2023-02-18T01:58:51.017Z,8.00
2023-02-18T02:02:53.989Z,7.85
2023-02-18T02:07:17.590Z,7.83
2023-02-18T02:11:53.012Z,7.91
2023-02-18T02:16:11.469Z,7.77
2023-02-18T02:20:25.127Z,7.58
2023-02-18T02:25:14.854Z,7.50
2023-02-18T02:29:31.789Z,7.36
2023-02-18T02:34:05.195Z,7.45
2023-02-18T02:38:21.602Z,7.45
2023-02-18T02:42:52.543Z,7.33
2023-02-18T02:47:04.273Z,7.16
2023-02-18T02:51:05.986Z,7.18
2023-02-18T02:55:11.812Z,7.26
2023-02-18T02:59:24.910Z,7.32
2023-02-18T03:03:39.775Z,7.23
2023-02-18T03:08:03.490Z,7.13
2023-02-18T03:12:59.857Z,7.17
2023-02-18T03:17:11.402Z,7.18
2023-02-18T03:21:36.823Z,7.09
2023-02-18T03:25:39.900Z,7.04
2023-02-18T03:29:44.808Z,6.95
2023-02-18T03:33:54.882Z,6.92
2023-02-18T03:38:09.395Z,6.82
2023-02-18T03:42:11.974Z,6.84
2023-02-18T03:46:13.799Z,6.86
2023-02-18T03:50:16.131Z,6.74
2023-02-18T03:54:18.408Z,6.74
2023-02-18T03:58:20.275Z,6.84
2023-02-18T04:02:23.192Z,6.86
2023-02-18T04:06:25.432Z,6.84
2023-02-18T04:10:27.388Z,6.80
2023-02-18T04:14:30.806Z,6.81
2023-02-18T04:18:33.010Z,6.87
2023-02-18T04:22:35.815Z,6.99
2023-02-18T04:26:37.970Z,7.08
2023-02-18T04:30:40.061Z,7.15
2023-02-18T04:34:42.133Z,7.21
2023-02-18T04:38:44.953Z,7.27
2023-02-18T04:42:46.889Z,7.32
2023-02-18T04:46:48.869Z,7.36
2023-02-18T04:50:50.754Z,7.31
2023-02-18T04:54:53.191Z,7.28
2023-02-18T04:58:56.183Z,7.32
2023-02-18T05:02:59.023Z,7.42
2023-02-18T05:07:01.410Z,7.54
2023-02-18T05:11:09.607Z,7.62
2023-02-18T05:15:11.522Z,7.60
2023-02-18T05:19:17.217Z,7.56
2023-02-18T05:23:20.966Z,7.58
2023-02-18T05:27:22.745Z,7.58
2023-02-18T05:31:25.658Z,7.63
2023-02-18T05:35:27.773Z,7.59
2023-02-18T05:39:31.298Z,7.56
2023-02-18T05:43:54.024Z,7.60
2023-02-18T05:47:56.814Z,7.56
2023-02-18T05:51:58.899Z,7.53
2023-02-18T05:56:00.592Z,7.45
2023-02-18T06:00:05.805Z,7.45
2023-02-18T06:04:08.097Z,7.48
2023-02-18T06:08:10.064Z,7.46
2023-02-18T06:12:12.324Z,7.45
2023-02-18T06:16:14.846Z,7.44
2023-02-18T06:20:17.314Z,7.44
2023-02-18T06:24:19.583Z,7.45
2023-02-18T06:28:21.749Z,7.48
2023-02-18T06:32:24.091Z,7.50
2023-02-18T06:36:26.123Z,7.60
2023-02-18T06:40:27.965Z,7.68
2023-02-18T06:44:31.472Z,7.78
2023-02-18T06:48:33.557Z,7.79
2023-02-18T06:52:37.506Z,7.83
2023-02-18T06:56:40.455Z,7.84
2023-02-18T07:00:42.556Z,7.89
2023-02-18T07:04:45.879Z,7.96
2023-02-18T07:08:47.872Z,8.03
2023-02-18T07:12:49.634Z,8.10
2023-02-18T07:16:52.303Z,8.13
2023-02-18T07:20:54.102Z,8.12
2023-02-18T07:24:56.425Z,8.19
2023-02-18T07:28:58.196Z,8.24
2023-02-18T07:33:00.766Z,8.26
2023-02-18T07:37:08.676Z,8.33
2023-02-18T07:41:19.185Z,8.35
2023-02-18T07:45:21.060Z,8.41
2023-02-18T07:49:23.564Z,8.38
2023-02-18T07:53:26.297Z,8.42
2023-02-18T07:57:28.244Z,8.44
2023-02-18T08:01:30.091Z,8.54
2023-02-18T08:05:31.981Z,8.54
2023-02-18T08:09:34.040Z,8.60
2023-02-18T08:13:38.720Z,8.61
2023-02-18T08:17:40.798Z,8.60
2023-02-18T08:21:42.799Z,8.70
2023-02-18T08:25:47.474Z,8.76
2023-02-18T08:29:53.599Z,8.79
2023-02-18T08:33:56.773Z,8.80
2023-02-18T08:37:59.607Z,8.84
2023-02-18T08:42:02.448Z,8.89
2023-02-18T08:46:05.297Z,8.85
2023-02-18T08:50:07.936Z,8.86
2023-02-18T08:54:09.629Z,8.80
2023-02-18T08:58:12.240Z,8.79
2023-02-18T09:02:14.781Z,8.79
2023-02-18T09:06:16.483Z,8.71
2023-02-18T09:10:18.335Z,8.66
2023-02-18T09:14:21.188Z,8.56
2023-02-18T09:18:23.699Z,8.57
2023-02-18T09:22:25.690Z,8.47
2023-02-18T09:26:27.455Z,8.37
2023-02-18T09:30:29.379Z,8.17
2023-02-18T09:34:31.730Z,8.20
2023-02-18T09:38:34.007Z,8.06
2023-02-18T09:42:36.291Z,7.89
2023-02-18T09:46:51.167Z,7.79
2023-02-18T09:50:53.653Z,7.78
2023-02-18T09:54:56.279Z,7.88
2023-02-18T09:59:03.722Z,7.85
2023-02-18T10:03:13.855Z,7.85
2023-02-18T10:07:28.461Z,7.73
2023-02-18T10:11:34.828Z,7.71
2023-02-18T10:15:38.149Z,7.74
2023-02-18T10:19:40.897Z,7.70
2023-02-18T10:24:13.662Z,7.74
2023-02-18T10:28:18.536Z,7.80
2023-02-18T10:32:28.163Z,7.85
2023-02-18T10:36:45.734Z,7.96
2023-02-18T10:40:47.401Z,8.08
2023-02-18T10:44:58.326Z,8.13
2023-02-18T10:49:04.700Z,8.28
2023-02-18T10:53:25.347Z,8.46
2023-02-18T10:57:27.795Z,8.69
2023-02-18T11:01:30.937Z,8.87
2023-02-18T11:05:35.807Z,9.06
2023-02-18T11:09:47.189Z,9.25
2023-02-18T11:13:54.835Z,9.32
2023-02-18T11:18:11.429Z,9.35
2023-02-18T11:22:23.746Z,9.42
2023-02-18T11:26:36.477Z,9.47
2023-02-18T11:30:45.672Z,9.49
2023-02-18T11:34:49.831Z,9.44
2023-02-18T11:39:05.742Z,9.42
2023-02-18T11:43:15.186Z,9.51
2023-02-18T11:47:16.677Z,9.57
2023-02-18T11:51:35.625Z,9.62
2023-02-18T11:55:37.581Z,9.52
2023-02-18T11:59:40.558Z,9.42
2023-02-18T12:03:56.045Z,9.24
2023-02-18T12:08:02.857Z,9.15
2023-02-18T12:12:15.474Z,9.08
2023-02-18T12:16:26.703Z,9.08
2023-02-18T12:20:43.901Z,9.05
2023-02-18T12:25:02.659Z,9.02
2023-02-18T12:29:31.661Z,9.08
2023-02-18T12:33:45.416Z,9.11
2023-02-18T12:38:01.660Z,9.19
2023-02-18T12:42:22.480Z,9.14
2023-02-18T12:46:34.183Z,9.18
2023-02-18T12:50:42.938Z,9.11
2023-02-18T12:55:14.551Z,9.10
2023-02-18T12:59:55.311Z,9.00
2023-02-18T13:04:00.474Z,9.05
2023-02-18T13:08:36.326Z,9.05
2023-02-18T13:12:58.165Z,9.01
2023-02-18T13:17:03.366Z,8.99
2023-02-18T13:21:09.309Z,9.03
2023-02-18T13:25:13.724Z,9.04
2023-02-18T13:29:28.137Z,9.06
2023-02-18T13:33:58.228Z,9.23
2023-02-18T13:38:34.955Z,9.39
2023-02-18T13:42:37.920Z,9.53
2023-02-18T13:46:49.470Z,9.85
2023-02-18T13:50:53.700Z,10.36
2023-02-18T13:54:55.675Z,10.82
2023-02-18T13:59:02.230Z,11.18
2023-02-18T14:03:49.849Z,11.45
2023-02-18T14:08:06.398Z,11.66
2023-02-18T14:12:30.044Z,11.77
2023-02-18T14:17:09.777Z,11.83
2023-02-18T14:21:11.366Z,11.89
2023-02-18T14:25:35.194Z,11.93
2023-02-18T14:29:37.184Z,11.98
2023-02-18T14:34:05.004Z,11.97
2023-02-18T14:38:30.357Z,11.86
2023-02-18T14:42:52.762Z,11.82
2023-02-18T14:47:35.327Z,11.75
2023-02-18T14:51:41.604Z,11.64
2023-02-18T14:55:48.126Z,11.61
2023-02-18T14:59:56.745Z,11.60
2023-02-18T15:03:58.448Z,11.62
2023-02-18T15:08:03.437Z,11.67
2023-02-18T15:12:08.481Z,11.63
2023-02-18T15:16:26.380Z,11.67
2023-02-18T15:20:31.996Z,11.69
2023-02-18T15:24:37.853Z,11.66
2023-02-18T15:28:51.201Z,11.57
2023-02-18T15:32:58.176Z,11.38
2023-02-18T15:37:01.426Z,11.25
2023-02-18T15:41:03.464Z,11.12
2023-02-18T15:45:17.637Z,11.01
2023-02-18T15:49:21.966Z,10.92
2023-02-18T15:53:25.566Z,10.91
2023-02-18T15:57:29.890Z,10.95
2023-02-18T16:01:31.684Z,11.05
2023-02-18T16:05:37.526Z,11.09
2023-02-18T16:09:39.475Z,11.12
2023-02-18T16:13:47.320Z,11.17
2023-02-18T16:17:49.200Z,11.20
2023-02-18T16:21:51.003Z,11.24
2023-02-18T16:25:52.786Z,11.23
2023-02-18T16:30:00.645Z,11.28
2023-02-18T16:34:03.544Z,11.26
2023-02-18T16:38:06.637Z,11.27
2023-02-18T16:42:10.833Z,11.26
2023-02-18T16:46:23.805Z,11.23
2023-02-18T16:50:30.029Z,11.21
2023-02-18T16:54:31.689Z,11.22
2023-02-18T16:58:33.868Z,11.24
2023-02-18T17:02:36.071Z,11.23
2023-02-18T17:06:37.967Z,11.18
2023-02-18T17:10:39.946Z,11.11
2023-02-18T17:14:43.096Z,11.05
2023-02-18T17:18:46.023Z,10.97
2023-02-18T17:22:47.777Z,10.94
2023-02-18T17:26:49.680Z,10.92
2023-02-18T17:30:56.724Z,10.86
2023-02-18T17:34:58.924Z,10.80
2023-02-18T17:39:02.737Z,10.80
2023-02-18T17:43:04.966Z,10.76
2023-02-18T17:47:06.799Z,10.79
2023-02-18T17:51:23.869Z,10.88
2023-02-18T17:55:28.485Z,10.93
2023-02-18T17:59:30.297Z,10.96
2023-02-18T18:03:32.203Z,10.97
2023-02-18T18:07:33.975Z,11.07
2023-02-18T18:11:38.561Z,11.13
2023-02-18T18:15:43.162Z,11.15
2023-02-18T18:19:44.958Z,11.20
2023-02-18T18:23:46.763Z,11.14
2023-02-18T18:27:51.774Z,11.17
2023-02-18T18:31:53.491Z,11.10
2023-02-18T18:35:57.380Z,11.04
2023-02-18T18:40:00.683Z,10.84
2023-02-18T18:44:05.930Z,10.78
2023-02-18T18:48:07.719Z,10.76
2023-02-18T18:52:15.804Z,10.78
2023-02-18T18:56:17.570Z,10.84
2023-02-18T19:00:28.055Z,10.70
2023-02-18T19:04:29.776Z,10.59
2023-02-18T19:08:32.805Z,10.59
2023-02-18T19:12:34.561Z,10.49
2023-02-18T19:16:38.691Z,10.51
2023-02-18T19:20:42.970Z,10.52
2023-02-18T19:24:47.840Z,10.54
2023-02-18T19:28:50.024Z,10.50
2023-02-18T19:32:55.310Z,10.51
2023-02-18T19:36:58.060Z,10.47
2023-02-18T19:41:11.857Z,10.45
2023-02-18T19:45:14.308Z,10.44
2023-02-18T19:49:16.039Z,10.34
2023-02-18T19:53:18.717Z,10.33
2023-02-18T19:57:20.699Z,10.39
2023-02-18T20:01:23.388Z,10.11
2023-02-18T20:05:25.568Z,10.05
2023-02-18T20:09:27.382Z,9.99
2023-02-18T20:13:33.929Z,9.41
2023-02-18T20:17:38.275Z,9.04
2023-02-18T20:21:40.296Z,8.97
2023-02-18T20:25:42.135Z,8.86
2023-02-18T20:29:43.968Z,8.93
2023-02-18T20:33:46.514Z,8.88
2023-02-18T20:37:48.118Z,8.84
2023-02-18T20:41:50.440Z,8.80
2023-02-18T20:45:52.808Z,8.69
2023-02-18T20:49:54.549Z,8.65
2023-02-18T20:53:56.174Z,8.56
2023-02-18T20:57:57.951Z,8.54
2023-02-18T21:02:00.476Z,8.49
2023-02-18T21:06:05.221Z,8.47
2023-02-18T21:10:07.998Z,8.36
2023-02-18T21:14:10.155Z,8.33
2023-02-18T21:18:12.124Z,8.28
2023-02-18T21:22:13.754Z,8.20
2023-02-18T21:26:18.085Z,8.21
2023-02-18T21:30:19.996Z,8.14
2023-02-18T21:34:22.223Z,8.10
2023-02-18T21:38:23.975Z,8.04
2023-02-18T21:42:25.753Z,8.01
2023-02-18T21:46:30.707Z,7.94
2023-02-18T21:50:32.728Z,7.93
2023-02-18T21:54:39.707Z,7.94
2023-02-18T21:58:43.553Z,8.00
2023-02-18T22:02:45.279Z,8.00
2023-02-18T22:06:47.186Z,8.03
2023-02-18T22:10:50.682Z,7.99
2023-02-18T22:14:52.731Z,7.98
2023-02-18T22:18:56.662Z,7.90
2023-02-18T22:22:58.373Z,7.84
2023-02-18T22:27:00.905Z,7.85
2023-02-18T22:31:08.916Z,7.94
2023-02-18T22:35:11.004Z,7.98
2023-02-18T22:39:13.264Z,8.02
2023-02-18T22:43:15.624Z,7.99
2023-02-18T22:47:17.624Z,7.95
2023-02-18T22:51:24.446Z,7.91
2023-02-18T22:55:26.504Z,7.88
2023-02-18T22:59:29.080Z,7.83
2023-02-18T23:03:30.791Z,7.86
2023-02-18T23:07:32.358Z,7.92
2023-02-18T23:11:34.748Z,8.00
2023-02-18T23:15:36.747Z,8.03
2023-02-18T23:19:41.299Z,7.97
2023-02-18T23:23:44.914Z,7.90
2023-02-18T23:27:47.060Z,7.96
2023-02-18T23:31:48.910Z,7.99
2023-02-18T23:35:51.158Z,8.06
2023-02-18T23:39:53.285Z,8.09
2023-02-18T23:43:56.065Z,8.11
2023-02-18T23:47:58.076Z,8.10
2023-02-18T23:51:59.886Z,8.05
2023-02-18T23:56:14.670Z,8.01
